Time;durP1;ratioP1;P1;durP2;ratioP2;P2;SDS_P1;SDS_P2;PMS_P1;PMS_P2;Temp;Humidity;BMP_temperature;BMP_pressure;BME280_temperature;BME280_humidity;BME280_pressure;Samples;Min_cycle;Max_cycle;Signal;HPM_P1;HPM_P2
2022/10/28 00:01:22;;;;;;;9.77;3.60;;;13.20;99.90;;;;;;5071762;28;20020;-72
2022/10/28 00:03:54;;;;;;;11.93;3.92;;;13.20;99.90;;;;;;5052445;28;20057;-73
2022/10/28 00:06:21;;;;;;;12.40;3.88;;;13.20;99.90;;;;;;5065361;28;20048;-72
2022/10/28 00:08:47;;;;;;;5.78;3.67;;;13.10;99.90;;;;;;5067156;28;20378;-72
2022/10/28 00:11:22;;;;;;;8.02;3.55;;;13.10;99.90;;;;;;5071005;28;20024;-72
2022/10/28 00:13:48;;;;;;;10.75;3.75;;;13.10;99.90;;;;;;5070300;28;20060;-72
2022/10/28 00:16:23;;;;;;;11.90;4.40;;;13.10;99.90;;;;;;5071594;28;20035;-72
2022/10/28 00:18:51;;;;;;;11.32;4.40;;;13.00;99.90;;;;;;5069526;28;20038;-73
2022/10/28 00:21:23;;;;;;;11.73;4.50;;;13.00;99.90;;;;;;5066408;28;20040;-73
2022/10/28 00:23:48;;;;;;;9.95;4.20;;;12.90;99.90;;;;;;5066240;28;20082;-72
2022/10/28 00:26:19;;;;;;;14.77;4.63;;;12.90;99.90;;;;;;5071398;28;20036;-72
2022/10/28 00:28:56;;;;;;;14.05;4.03;;;12.90;99.90;;;;;;5069637;28;20020;-71
2022/10/28 00:31:24;;;;;;;11.68;4.03;;;12.80;99.90;;;;;;5071014;28;20473;-71
2022/10/28 00:33:50;;;;;;;8.40;3.80;;;12.90;99.90;;;;;;5069834;28;20099;-71
2022/10/28 00:36:21;;;;;;;6.97;3.67;;;12.80;99.90;;;;;;5053168;28;20107;-71
2022/10/28 00:38:49;;;;;;;7.63;3.78;;;12.70;99.90;;;;;;5064529;28;20029;-71
2022/10/28 00:41:25;;;;;;;8.18;4.30;;;12.70;99.90;;;;;;5071238;28;20024;-71
2022/10/28 00:43:54;;;;;;;7.45;4.80;;;12.70;99.90;;;;;;5066593;28;20040;-73
2022/10/28 00:46:26;;;;;;;9.48;4.70;;;12.80;99.90;;;;;;5068348;28;20048;-71
2022/10/28 00:49:01;;;;;;;12.35;4.50;;;12.80;99.90;;;;;;5069952;28;20055;-71
2022/10/28 00:51:30;;;;;;;10.73;4.25;;;12.80;99.90;;;;;;5057843;28;20480;-71
2022/10/28 00:53:57;;;;;;;8.45;3.83;;;12.90;99.90;;;;;;5070222;28;20035;-71
2022/10/28 00:56:26;;;;;;;12.15;4.78;;;12.90;99.90;;;;;;5082667;28;20481;-72
2022/10/28 00:58:55;;;;;;;10.68;4.60;;;13.00;99.90;;;;;;5081323;28;20020;-72
2022/10/28 01:01:21;;;;;;;10.93;4.57;;;13.00;99.90;;;;;;5090457;28;20032;-72
2022/10/28 01:03:47;;;;;;;11.75;4.18;;;13.00;99.90;;;;;;5089527;28;20035;-72
2022/10/28 01:06:13;;;;;;;5.95;3.47;;;13.00;99.90;;;;;;5091823;28;20059;-72
2022/10/28 01:08:38;;;;;;;11.90;4.22;;;13.00;99.90;;;;;;5094129;28;20024;-78
2022/10/28 01:11:25;;;;;;;10.75;4.65;;;13.00;99.90;;;;;;5088477;28;20024;-72
2022/10/28 01:14:20;;;;;;;10.30;3.83;;;13.00;99.90;;;;;;5093291;28;20424;-72
2022/10/28 01:17:18;;;;;;;7.05;3.65;;;13.10;99.90;;;;;;5050064;28;20056;-72
2022/10/28 01:19:53;;;;;;;11.90;4.13;;;13.10;99.90;;;;;;5093630;28;20024;-72
2022/10/28 01:22:46;;;;;;;8.32;4.07;;;13.10;99.90;;;;;;5076490;28;20042;-72
2022/10/28 01:25:26;;;;;;;7.75;3.70;;;13.10;99.90;;;;;;5094190;28;20114;-71
2022/10/28 01:27:52;;;;;;;8.98;4.55;;;13.00;99.90;;;;;;5093847;28;20422;-72
2022/10/28 01:30:20;;;;;;;11.98;4.35;;;13.00;99.90;;;;;;5093974;28;20024;-72
2022/10/28 01:33:00;;;;;;;7.30;4.25;;;13.00;99.90;;;;;;5093549;28;20093;-73
2022/10/28 01:35:47;;;;;;;12.18;4.97;;;13.00;99.90;;;;;;5093855;28;20028;-74
2022/10/28 01:38:31;;;;;;;7.20;3.92;;;12.90;99.90;;;;;;5089212;28;20361;-73
2022/10/28 01:41:12;;;;;;;9.18;4.35;;;12.80;99.90;;;;;;5093162;28;20028;-73
2022/10/28 01:43:50;;;;;;;9.40;4.35;;;12.70;99.90;;;;;;5093382;28;20028;-78
2022/10/28 01:46:24;;;;;;;8.88;4.28;;;12.60;99.90;;;;;;5094098;28;20103;-72
2022/10/28 01:48:52;;;;;;;8.88;3.90;;;12.60;99.90;;;;;;5093057;28;20046;-73
2022/10/28 01:51:44;;;;;;;14.35;4.80;;;12.50;99.90;;;;;;5094135;28;20036;-73
2022/10/28 01:54:13;;;;;;;8.65;5.10;;;12.40;99.90;;;;;;5093284;28;20109;-73
2022/10/28 01:56:41;;;;;;;7.72;4.80;;;12.40;99.90;;;;;;5093726;28;20073;-78
2022/10/28 01:59:11;;;;;;;10.93;5.45;;;12.30;99.90;;;;;;5093885;28;20056;-73
2022/10/28 02:01:37;;;;;;;11.50;5.30;;;12.30;99.90;;;;;;5094009;28;20028;-77
2022/10/28 02:04:03;;;;;;;8.35;4.68;;;12.20;99.90;;;;;;5093261;28;20122;-73
2022/10/28 02:06:31;;;;;;;7.05;3.90;;;12.20;99.90;;;;;;5094266;28;20078;-73
2022/10/28 02:09:00;;;;;;;9.27;4.50;;;12.10;99.90;;;;;;5089075;28;20032;-73
2022/10/28 02:11:28;;;;;;;15.50;4.63;;;12.10;99.90;;;;;;5094045;28;20024;-72
2022/10/28 02:13:58;;;;;;;9.45;5.03;;;12.10;99.90;;;;;;5077477;28;20382;-72
2022/10/28 02:16:43;;;;;;;;;;;12.10;99.90;;;;;;5094660;28;20028;-72
2022/10/28 02:19:17;;;;;;;11.55;4.75;;;12.10;99.90;;;;;;5092152;28;20002;-72
2022/10/28 02:22:14;;;;;;;8.93;4.25;;;12.00;99.90;;;;;;5093047;28;20024;-73
2022/10/28 02:24:40;;;;;;;10.40;4.45;;;12.00;99.90;;;;;;5092695;28;20161;-78
2022/10/28 02:27:29;;;;;;;8.02;4.03;;;12.00;99.90;;;;;;5093398;28;20461;-72
2022/10/28 02:30:06;;;;;;;11.27;4.45;;;12.00;99.90;;;;;;5087212;28;20055;-72
2022/10/28 02:32:37;;;;;;;12.07;5.47;;;12.00;99.90;;;;;;5093022;28;20051;-74
2022/10/28 02:35:09;;;;;;;9.30;4.30;;;11.90;99.90;;;;;;5092775;28;20465;-72
2022/10/28 02:37:38;;;;;;;10.32;4.53;;;11.90;99.90;;;;;;5093714;28;20119;-75
2022/10/28 02:40:11;;;;;;;13.40;4.97;;;11.90;99.90;;;;;;5092770;28;20028;-72
2022/10/28 02:42:43;;;;;;;8.30;4.63;;;11.80;99.90;;;;;;5092936;28;20501;-78
2022/10/28 02:45:16;;;;;;;12.15;5.22;;;11.90;99.90;;;;;;5093114;28;20405;-73
2022/10/28 02:47:47;;;;;;;15.38;5.50;;;11.80;99.90;;;;;;5083242;28;20028;-76
2022/10/28 02:50:16;;;;;;;12.35;4.85;;;11.80;99.90;;;;;;5093150;28;20035;-72
2022/10/28 02:52:45;;;;;;;8.68;5.25;;;11.90;99.90;;;;;;5092364;28;20069;-73
2022/10/28 02:55:11;;;;;;;6.28;4.35;;;11.80;99.90;;;;;;5092870;28;20128;-72
2022/10/28 02:57:46;;;;;;;8.50;4.70;;;11.70;99.90;;;;;;5093047;28;20028;-77
2022/10/28 03:00:19;;;;;;;6.57;4.35;;;11.80;99.90;;;;;;5092761;28;20067;-72
2022/10/28 03:02:45;;;;;;;16.27;5.22;;;11.80;99.90;;;;;;5092173;28;20028;-72
2022/10/28 03:05:11;;;;;;;9.13;4.65;;;11.80;99.90;;;;;;5080556;28;20607;-73
2022/10/28 03:07:36;;;;;;;18.35;5.40;;;11.90;99.90;;;;;;5090207;28;20122;-76
2022/10/28 03:10:02;;;;;;;15.38;5.57;;;12.00;99.90;;;;;;5088920;28;20020;-73
2022/10/28 03:12:28;;;;;;;11.88;4.65;;;12.00;99.90;;;;;;5086712;28;20116;-73
2022/10/28 03:14:53;;;;;;;9.30;4.45;;;12.10;99.90;;;;;;5080970;28;20131;-73
2022/10/28 03:17:19;;;;;;;9.88;4.50;;;12.10;99.90;;;;;;5088976;28;20499;-73
2022/10/28 03:19:44;;;;;;;6.43;3.90;;;12.20;99.90;;;;;;5091578;28;20032;-73
2022/10/28 03:22:10;;;;;;;8.27;4.50;;;12.20;99.90;;;;;;5092311;28;20028;-72
2022/10/28 03:24:35;;;;;;;6.65;4.35;;;12.30;99.90;;;;;;5091429;28;20408;-72
2022/10/28 03:27:01;;;;;;;9.93;4.22;;;12.30;99.90;;;;;;5091950;28;20078;-72
2022/10/28 03:29:27;;;;;;;7.25;4.32;;;12.30;99.90;;;;;;5085222;28;20013;-72
2022/10/28 03:31:52;;;;;;;8.00;4.03;;;12.30;99.90;;;;;;5087557;28;20020;-72
2022/10/28 03:34:18;;;;;;;9.10;5.38;;;12.40;99.90;;;;;;5091328;28;20461;-72
2022/10/28 03:36:43;;;;;;;15.48;4.80;;;12.40;99.90;;;;;;5091209;28;20032;-72
2022/10/28 03:39:09;;;;;;;7.97;3.95;;;12.50;99.90;;;;;;5073415;28;20024;-72
2022/10/28 03:41:35;;;;;;;10.13;4.50;;;12.40;99.90;;;;;;5092185;28;20039;-72
2022/10/28 03:44:00;;;;;;;10.32;4.97;;;12.40;99.90;;;;;;5072366;28;20024;-72
2022/10/28 03:46:26;;;;;;;8.52;4.07;;;12.50;99.90;;;;;;5091907;28;20020;-72
2022/10/28 03:48:51;;;;;;;8.38;3.67;;;12.50;99.90;;;;;;5090586;28;20385;-72
2022/10/28 03:51:17;;;;;;;9.60;4.13;;;12.50;99.90;;;;;;5092061;28;20038;-72
2022/10/28 03:53:43;;;;;;;10.68;4.35;;;12.50;99.90;;;;;;5090571;28;20040;-74
2022/10/28 03:56:10;;;;;;;8.60;4.95;;;12.50;99.90;;;;;;5091267;28;20048;-71
2022/10/28 03:58:35;;;;;;;7.03;4.10;;;12.60;99.90;;;;;;5091795;28;20020;-73
2022/10/28 04:01:01;;;;;;;8.77;4.43;;;12.60;99.90;;;;;;5090338;28;20484;-72
2022/10/28 04:03:26;;;;;;;8.23;4.40;;;12.60;99.90;;;;;;5091746;28;20366;-72
2022/10/28 04:05:52;;;;;;;12.20;4.28;;;12.60;99.90;;;;;;5086311;28;20048;-72
2022/10/28 04:08:19;;;;;;;9.70;5.30;;;12.60;99.90;;;;;;5091658;28;20028;-72
2022/10/28 04:10:45;;;;;;;11.35;4.93;;;12.60;99.90;;;;;;5088717;28;20027;-73
2022/10/28 04:13:12;;;;;;;7.40;4.30;;;12.60;99.90;;;;;;5091959;28;20024;-73
2022/10/28 04:15:37;;;;;;;10.02;4.38;;;12.60;99.90;;;;;;5090849;28;20089;-77
2022/10/28 04:18:03;;;;;;;13.15;4.40;;;12.60;99.90;;;;;;5085605;28;20465;-72
2022/10/28 04:20:30;;;;;;;7.28;4.45;;;12.60;99.90;;;;;;5086195;28;20032;-72
2022/10/28 04:22:56;;;;;;;14.75;5.22;;;12.60;99.90;;;;;;5084636;28;20039;-73
2022/10/28 04:25:22;;;;;;;9.13;4.72;;;12.60;99.90;;;;;;5084789;28;20064;-73
2022/10/28 04:27:48;;;;;;;12.73;4.93;;;12.70;99.90;;;;;;5086660;28;20377;-73
2022/10/28 04:30:14;;;;;;;8.60;5.55;;;12.70;99.90;;;;;;5065189;28;20035;-72
2022/10/28 04:32:40;;;;;;;11.85;4.95;;;12.70;99.90;;;;;;5081554;28;20023;-79
2022/10/28 04:35:07;;;;;;;17.13;5.40;;;12.70;99.90;;;;;;5083840;28;20031;-73
2022/10/28 04:37:32;;;;;;;19.40;4.93;;;12.80;99.90;;;;;;5087713;28;20529;-73
2022/10/28 04:39:58;;;;;;;11.77;5.22;;;12.80;99.90;;;;;;5089681;28;20020;-72
2022/10/28 04:42:24;;;;;;;12.35;5.60;;;12.80;99.90;;;;;;5090920;28;20024;-73
2022/10/28 04:44:49;;;;;;;16.45;5.65;;;12.80;99.90;;;;;;5089952;28;20426;-74
2022/10/28 04:47:16;;;;;;;9.45;5.63;;;12.80;99.90;;;;;;5087295;28;20028;-73
2022/10/28 04:49:41;;;;;;;11.25;5.30;;;12.90;99.90;;;;;;5090246;28;20477;-74
2022/10/28 04:52:07;;;;;;;10.68;5.45;;;12.80;99.90;;;;;;5091337;28;20028;-72
2022/10/28 04:54:33;;;;;;;11.82;5.57;;;12.80;99.90;;;;;;5090480;27;20052;-73
2022/10/28 04:56:58;;;;;;;9.60;5.50;;;12.80;99.90;;;;;;5090482;28;20113;-72
2022/10/28 04:59:24;;;;;;;8.10;5.40;;;12.90;99.90;;;;;;5090761;28;20407;-72
2022/10/28 05:01:49;;;;;;;8.63;5.05;;;12.90;99.90;;;;;;5088297;28;20028;-77
2022/10/28 05:04:15;;;;;;;16.42;6.25;;;12.80;99.90;;;;;;5079099;28;20017;-74
2022/10/28 05:06:41;;;;;;;16.40;6.72;;;12.90;99.90;;;;;;5089926;28;20039;-75
2022/10/28 05:09:06;;;;;;;11.75;6.07;;;13.00;99.90;;;;;;5083125;28;20028;-75
2022/10/28 05:11:32;;;;;;;15.98;6.45;;;13.00;99.90;;;;;;5090215;28;20024;-74
2022/10/28 05:13:58;;;;;;;14.00;5.22;;;13.00;99.90;;;;;;5089534;28;20091;-74
2022/10/28 05:16:23;;;;;;;14.02;6.80;;;13.00;99.90;;;;;;5090605;28;20051;-74
2022/10/28 05:18:49;;;;;;;10.20;6.10;;;13.00;99.90;;;;;;5089114;28;20138;-74
2022/10/28 05:21:15;;;;;;;12.40;6.18;;;13.10;99.90;;;;;;5087248;28;20032;-74
2022/10/28 05:23:40;;;;;;;15.52;6.35;;;13.10;99.90;;;;;;5087283;28;20032;-77
2022/10/28 05:26:06;;;;;;;14.25;6.18;;;13.20;99.90;;;;;;5072131;28;20063;-73
2022/10/28 05:28:32;;;;;;;12.18;6.15;;;13.10;99.90;;;;;;5090704;28;20035;-74
2022/10/28 05:30:57;;;;;;;10.35;5.18;;;13.10;99.90;;;;;;5071345;28;20580;-74
2022/10/28 05:33:23;;;;;;;10.93;5.15;;;13.00;99.90;;;;;;5090120;28;20036;-74
2022/10/28 05:35:49;;;;;;;11.48;5.97;;;12.90;99.90;;;;;;5089202;28;20085;-73
2022/10/28 05:38:14;;;;;;;13.80;6.22;;;12.80;99.90;;;;;;5090605;28;20107;-72
2022/10/28 05:40:40;;;;;;;13.35;6.68;;;12.80;99.90;;;;;;5089044;28;20050;-78
2022/10/28 05:43:08;;;;;;;11.05;5.93;;;12.70;99.90;;;;;;5072349;28;20030;-74
2022/10/28 05:45:34;;;;;;;9.30;5.32;;;12.60;99.90;;;;;;5089904;28;20032;-75
2022/10/28 05:47:59;;;;;;;13.32;5.60;;;12.70;99.90;;;;;;5086127;28;20135;-75
2022/10/28 05:50:25;;;;;;;15.70;6.18;;;12.60;99.90;;;;;;5090802;28;20429;-76
2022/10/28 05:52:56;;;;;;;18.58;5.85;;;12.60;99.90;;;;;;5092110;28;20032;-75
2022/10/28 05:55:23;;;;;;;16.00;6.82;;;12.50;99.90;;;;;;5094260;28;20058;-72
2022/10/28 05:57:50;;;;;;;14.15;5.72;;;12.50;99.90;;;;;;5093497;28;20036;-74
2022/10/28 06:00:18;;;;;;;15.45;6.63;;;12.50;99.90;;;;;;5093703;28;20042;-70
2022/10/28 06:02:43;;;;;;;12.80;6.38;;;12.50;99.90;;;;;;5087894;28;20028;-76
2022/10/28 06:05:10;;;;;;;10.63;5.22;;;12.40;99.90;;;;;;5094120;28;20436;-75
2022/10/28 06:07:37;;;;;;;11.45;6.32;;;12.40;99.90;;;;;;5094503;28;20028;-79
2022/10/28 06:10:04;;;;;;;10.50;6.00;;;12.30;99.90;;;;;;5093781;28;20024;-72
2022/10/28 06:12:30;;;;;;;18.20;5.97;;;12.30;99.90;;;;;;5094384;28;20035;-69
2022/10/28 06:14:56;;;;;;;12.85;5.65;;;12.30;99.90;;;;;;5093427;28;20220;-76
2022/10/28 06:17:21;;;;;;;13.65;6.57;;;12.30;99.90;;;;;;5079768;28;20362;-73
2022/10/28 06:19:47;;;;;;;13.52;6.07;;;12.30;99.90;;;;;;5092393;28;20107;-75
2022/10/28 06:22:13;;;;;;;10.60;7.03;;;12.30;99.90;;;;;;5085319;28;20461;-74
2022/10/28 06:24:39;;;;;;;10.60;6.50;;;12.20;99.90;;;;;;5092532;28;20032;-74
2022/10/28 06:27:06;;;;;;;17.92;7.05;;;12.20;99.90;;;;;;5093096;28;20031;-74
2022/10/28 06:29:32;;;;;;;14.13;6.57;;;12.20;99.90;;;;;;5074172;28;20037;-76
2022/10/28 06:31:58;;;;;;;12.45;6.45;;;12.20;99.90;;;;;;5082356;28;20620;-72
2022/10/28 06:34:23;;;;;;;14.20;7.07;;;12.20;99.90;;;;;;5078490;28;20097;-72
2022/10/28 06:36:49;;;;;;;13.48;6.72;;;12.20;99.90;;;;;;5092547;28;20028;-70
2022/10/28 06:39:15;;;;;;;11.15;6.32;;;12.30;99.90;;;;;;5092901;28;20036;-71
2022/10/28 06:41:41;;;;;;;13.80;6.30;;;12.30;99.90;;;;;;5092692;28;20469;-84
2022/10/28 06:44:06;;;;;;;11.95;5.88;;;12.30;99.90;;;;;;5082876;28;20411;-71
2022/10/28 06:46:32;;;;;;;10.75;6.00;;;12.40;99.90;;;;;;5092626;28;20035;-72
2022/10/28 06:48:58;;;;;;;14.77;6.05;;;12.50;99.90;;;;;;5092115;28;20587;-72
2022/10/28 06:51:23;;;;;;;9.77;5.20;;;12.50;99.90;;;;;;5092585;28;20036;-71
2022/10/28 06:53:50;;;;;;;16.20;5.70;;;12.60;99.90;;;;;;5091616;28;20020;-70
2022/10/28 06:56:16;;;;;;;14.73;5.70;;;12.70;99.90;;;;;;5092506;28;20127;-68
2022/10/28 06:58:42;;;;;;;12.88;6.47;;;12.90;99.90;;;;;;5091235;28;20430;-71
2022/10/28 07:01:08;;;;;;;16.05;7.32;;;13.00;99.90;;;;;;5092921;28;20024;-69
2022/10/28 07:03:34;;;;;;;13.85;6.90;;;13.10;99.90;;;;;;5091864;28;20024;-72
2022/10/28 07:06:00;;;;;;;16.67;8.18;;;13.10;99.90;;;;;;5090709;28;20108;-69
2022/10/28 07:08:26;;;;;;;19.42;7.68;;;13.10;99.90;;;;;;5083283;28;20044;-68
2022/10/28 07:10:56;;;;;;;26.55;8.45;;;13.10;99.90;;;;;;5084903;28;20382;-68
2022/10/28 07:13:23;;;;;;;12.65;7.50;;;13.10;99.90;;;;;;5092248;28;20039;-68
2022/10/28 07:15:57;;;;;;;19.48;8.90;;;13.20;99.90;;;;;;5072875;28;20414;-66
2022/10/28 07:18:25;;;;;;;14.93;7.40;;;13.20;99.90;;;;;;5092395;28;20016;-68
2022/10/28 07:20:50;;;;;;;14.57;7.60;;;13.30;99.90;;;;;;5072935;28;20020;-66
2022/10/28 07:23:17;;;;;;;18.98;7.90;;;13.30;99.90;;;;;;5091859;28;20035;-66
2022/10/28 07:25:42;;;;;;;18.98;8.55;;;13.40;99.90;;;;;;5083823;28;20562;-67
2022/10/28 07:28:08;;;;;;;17.30;8.07;;;13.40;99.90;;;;;;5088387;28;20034;-68
2022/10/28 07:30:34;;;;;;;20.88;8.15;;;13.50;99.90;;;;;;5085820;28;20024;-68
2022/10/28 07:33:00;;;;;;;26.80;9.13;;;13.60;99.90;;;;;;5086877;28;20085;-68
2022/10/28 07:35:27;;;;;;;25.42;8.85;;;13.70;99.90;;;;;;5091306;28;20082;-68
2022/10/28 07:37:54;;;;;;;32.40;8.85;;;13.70;99.90;;;;;;5090549;28;20468;-68
2022/10/28 07:40:20;;;;;;;37.08;10.32;;;13.90;99.90;;;;;;5091555;28;20070;-68
2022/10/28 07:42:46;;;;;;;24.05;6.97;;;14.00;99.90;;;;;;5086040;28;20051;-68
2022/10/28 07:45:12;;;;;;;12.80;6.00;;;14.10;99.90;;;;;;5088662;28;20067;-68
2022/10/28 07:47:42;;;;;;;10.15;5.25;;;14.30;99.90;;;;;;5090994;28;20751;-71
2022/10/28 07:50:08;;;;;;;12.40;5.78;;;14.40;99.90;;;;;;5080560;28;20023;-68
2022/10/28 07:52:35;;;;;;;13.48;5.80;;;14.50;99.90;;;;;;5091938;28;20031;-68
2022/10/28 07:55:01;;;;;;;11.15;5.32;;;14.50;99.90;;;;;;5089839;28;20052;-68
2022/10/28 07:57:27;;;;;;;15.20;4.80;;;14.50;99.90;;;;;;5091390;28;20047;-69
2022/10/28 07:59:53;;;;;;;9.75;5.13;;;14.60;99.90;;;;;;5090072;28;20453;-68
2022/10/28 08:02:22;;;;;;;7.82;4.22;;;14.60;99.90;;;;;;5091486;28;20078;-69
2022/10/28 08:04:48;;;;;;;15.23;5.75;;;14.70;99.90;;;;;;5089857;28;20538;-68
2022/10/28 08:07:14;;;;;;;18.85;6.95;;;14.80;99.90;;;;;;5091489;28;20032;-68
2022/10/28 08:09:40;;;;;;;13.82;5.90;;;14.90;99.90;;;;;;5089856;28;20028;-71
2022/10/28 08:12:07;;;;;;;15.77;5.00;;;15.00;99.90;;;;;;5086351;28;20032;-68
2022/10/28 08:14:33;;;;;;;16.23;4.68;;;15.10;99.90;;;;;;5081520;28;20457;-70
2022/10/28 08:16:59;;;;;;;10.30;4.97;;;15.20;99.90;;;;;;5081832;28;20032;-69
2022/10/28 08:19:25;;;;;;;11.80;5.20;;;15.30;99.90;;;;;;5083885;28;20392;-69
2022/10/28 08:21:51;;;;;;;17.95;5.72;;;15.40;99.90;;;;;;5082716;28;20106;-69
2022/10/28 08:24:16;;;;;;;15.10;6.75;;;15.60;99.90;;;;;;5082947;28;20128;-69
2022/10/28 08:26:42;;;;;;;13.45;6.25;;;15.70;99.90;;;;;;5079760;28;20449;-68
2022/10/28 08:29:10;;;;;;;14.48;5.63;;;15.80;99.90;;;;;;5086071;28;20024;-68
2022/10/28 08:31:36;;;;;;;12.82;6.35;;;15.90;99.90;;;;;;5090903;28;20710;-69
2022/10/28 08:34:02;;;;;;;20.05;6.13;;;15.90;99.90;;;;;;5086599;28;20031;-69
2022/10/28 08:36:27;;;;;;;19.58;6.65;;;15.90;99.90;;;;;;5088701;28;20090;-69
2022/10/28 08:38:53;;;;;;;11.30;5.00;;;15.90;99.90;;;;;;5071513;28;20028;-68
2022/10/28 08:41:38;;;;;;;14.05;5.80;;;16.00;99.90;;;;;;5091083;28;20097;-69
2022/10/28 08:44:24;;;;;;;17.45;6.15;;;16.00;99.90;;;;;;5071646;28;20460;-68
2022/10/28 08:47:11;;;;;;;15.85;6.40;;;16.10;99.90;;;;;;5089573;28;20032;-69
2022/10/28 08:49:39;;;;;;;15.15;5.95;;;16.20;99.90;;;;;;5090371;28;20070;-70
2022/10/28 08:52:17;;;;;;;13.70;6.65;;;16.30;99.90;;;;;;5090307;28;20024;-70
2022/10/28 08:54:50;;;;;;;11.63;5.88;;;16.40;99.90;;;;;;5088695;28;20103;-70
2022/10/28 08:57:21;;;;;;;15.18;6.25;;;16.50;99.90;;;;;;5063428;28;20071;-69
2022/10/28 08:59:51;;;;;;;9.65;5.20;;;16.60;99.90;;;;;;5068778;28;20042;-69
2022/10/28 09:02:30;;;;;;;9.55;5.65;;;16.70;99.90;;;;;;5070290;28;20024;-69
2022/10/28 09:05:06;;;;;;;11.65;6.07;;;16.80;99.90;;;;;;5069351;28;20477;-68
2022/10/28 09:07:34;;;;;;;16.65;5.78;;;17.00;99.90;;;;;;5070536;28;20103;-69
2022/10/28 09:10:00;;;;;;;15.07;5.85;;;17.20;99.90;;;;;;5069122;28;20635;-69
2022/10/28 09:12:43;;;;;;;15.38;6.40;;;17.40;99.90;;;;;;5070646;28;20028;-69
2022/10/28 09:15:20;;;;;;;14.70;6.07;;;17.50;99.90;;;;;;5069904;28;20025;-70
2022/10/28 09:17:57;;;;;;;14.85;5.80;;;17.60;99.90;;;;;;5069555;28;20032;-68
2022/10/28 09:20:48;;;;;;;10.23;5.18;;;17.70;99.90;;;;;;5063117;28;20021;-68
2022/10/28 09:23:30;;;;;;;16.95;5.78;;;17.70;99.90;;;;;;5070119;28;20051;-70
2022/10/28 09:26:27;;;;;;;16.40;5.40;;;17.70;99.90;;;;;;5051027;28;20039;-69
2022/10/28 09:29:57;;;;;;;12.77;5.13;;;17.80;99.90;;;;;;5073259;28;20074;-69
2022/10/28 09:32:39;;;;;;;10.93;5.20;;;17.80;99.90;;;;;;4992728;28;20048;-67
2022/10/28 09:35:11;;;;;;;11.55;5.65;;;17.70;99.90;;;;;;5000754;28;20050;-69
2022/10/28 09:38:12;;;;;;;26.65;6.45;;;17.70;99.90;;;;;;5061555;28;20401;-69
2022/10/28 09:40:40;;;;;;;26.95;7.00;;;17.80;99.90;;;;;;5059974;28;20086;-70
2022/10/28 09:43:21;;;;;;;14.95;5.22;;;18.00;99.90;;;;;;5073509;28;20071;-69
2022/10/28 09:45:50;;;;;;;16.50;5.68;;;17.80;99.90;;;;;;5072661;28;20128;-69
2022/10/28 09:48:29;;;;;;;16.60;5.30;;;17.60;99.90;;;;;;5074205;28;20024;-70
2022/10/28 09:50:56;;;;;;;15.15;5.18;;;17.50;99.90;;;;;;5068086;28;20381;-68
2022/10/28 09:53:44;;;;;;;10.60;5.32;;;17.50;99.90;;;;;;5051232;28;20043;-71
2022/10/28 09:56:10;;;;;;;16.90;4.93;;;17.70;99.90;;;;;;5075520;28;20129;-67
2022/10/28 09:58:39;;;;;;;17.48;4.78;;;17.80;99.90;;;;;;5087195;28;20066;-66
2022/10/28 10:01:04;;;;;;;14.68;4.20;;;18.20;99.90;;;;;;5093391;28;20136;-69
2022/10/28 10:03:31;;;;;;;19.27;4.68;;;18.60;99.90;;;;;;5086150;28;20414;-71
2022/10/28 10:06:01;;;;;;;11.82;3.90;;;19.20;99.90;;;;;;5092497;28;20043;-71
2022/10/28 10:08:26;;;;;;;;;;;19.60;99.90;;;;;;5094143;28;20122;-69
2022/10/28 10:11:06;;;;;;;17.95;5.53;;;20.00;99.90;;;;;;5090793;28;19998;-69
2022/10/28 10:13:38;;;;;;;14.85;5.43;;;20.30;99.90;;;;;;5093189;28;20031;-69
2022/10/28 10:16:20;;;;;;;17.30;4.70;;;20.30;99.90;;;;;;5093238;28;20338;-75
2022/10/28 10:18:50;;;;;;;18.95;5.00;;;20.30;99.90;;;;;;5092148;28;20381;-74
2022/10/28 10:21:19;;;;;;;10.63;4.78;;;20.30;99.90;;;;;;5093459;28;20048;-76
2022/10/28 10:23:44;;;;;;;18.23;5.13;;;20.40;99.90;;;;;;5093164;28;20365;-79
2022/10/28 10:26:15;;;;;;;13.75;4.53;;;20.40;99.90;;;;;;5093819;28;20046;-80
2022/10/28 10:28:49;;;;;;;10.68;3.97;;;20.50;99.90;;;;;;5092612;28;20028;-70
2022/10/28 10:31:41;;;;;;;16.05;4.47;;;20.60;99.90;;;;;;5092953;28;20020;-68
2022/10/28 10:34:22;;;;;;;14.73;4.68;;;20.70;99.90;;;;;;5080894;28;20040;-69
2022/10/28 10:36:49;;;;;;;14.85;4.97;;;20.80;99.90;;;;;;5082178;28;20030;-70
2022/10/28 10:39:33;;;;;;;12.13;4.28;;;20.80;99.90;;;;;;5089660;28;20073;-70
2022/10/28 10:41:59;;;;;;;11.90;3.67;;;20.70;99.90;;;;;;5083927;28;20338;-71
2022/10/28 10:44:31;;;;;;;14.38;3.63;;;20.60;99.90;;;;;;5092508;28;20024;-71
2022/10/28 10:47:00;;;;;;;10.15;4.22;;;20.60;99.90;;;;;;5092092;28;20075;-69
2022/10/28 10:49:27;;;;;;;15.70;5.30;;;20.70;99.90;;;;;;5092397;28;20016;-70
2022/10/28 10:51:56;;;;;;;15.02;4.25;;;20.80;99.90;;;;;;5092287;28;20020;-69
2022/10/28 10:54:25;;;;;;;10.00;4.43;;;20.80;99.90;;;;;;5084977;28;20491;-70
2022/10/28 10:56:50;;;;;;;12.90;4.80;;;20.80;99.90;;;;;;5092176;28;20056;-71
2022/10/28 10:59:23;;;;;;;15.73;4.35;;;20.70;99.90;;;;;;5091812;28;20122;-71
2022/10/28 11:01:49;;;;;;;18.83;4.47;;;20.60;99.90;;;;;;5091582;28;20069;-69
2022/10/28 11:04:19;;;;;;;12.10;4.63;;;20.50;99.90;;;;;;5091796;28;20103;-69
2022/10/28 11:06:48;;;;;;;;;;;20.60;99.90;;;;;;5091473;28;20028;-70
2022/10/28 11:09:29;;;;;;;10.73;4.10;;;20.50;99.90;;;;;;5092160;28;19998;-70
2022/10/28 11:11:55;;;;;;;14.60;4.68;;;20.60;99.90;;;;;;5092336;28;20486;-69
2022/10/28 11:14:30;;;;;;;12.73;5.28;;;20.80;99.90;;;;;;5092100;28;20070;-70
2022/10/28 11:16:57;;;;;;;15.45;5.25;;;20.90;99.90;;;;;;5091905;28;20111;-70
2022/10/28 11:19:34;;;;;;;12.18;4.28;;;21.10;99.90;;;;;;5073501;28;20181;-70
2022/10/28 11:22:14;;;;;;;13.20;5.70;;;21.20;99.90;;;;;;5091352;28;20479;-71
2022/10/28 11:24:47;;;;;;;;;;;21.30;99.90;;;;;;5089274;28;20036;-71
2022/10/28 11:27:18;;;;;;;10.90;4.90;;;21.20;99.90;;;;;;5092748;28;19953;-68
2022/10/28 11:29:45;;;;;;;10.82;4.18;;;21.20;99.90;;;;;;5091343;28;20027;-70
2022/10/28 11:32:31;;;;;;;7.38;4.53;;;21.20;99.90;;;;;;5092494;28;20055;-70
2022/10/28 11:35:15;;;;;;;11.05;4.28;;;21.10;99.90;;;;;;5089825;28;20459;-70
2022/10/28 11:38:06;;;;;;;10.80;4.40;;;21.10;99.90;;;;;;5091753;28;20381;-70
2022/10/28 11:40:55;;;;;;;8.15;4.25;;;21.10;99.90;;;;;;5092078;28;20073;-69
2022/10/28 11:43:47;;;;;;;12.73;5.00;;;21.00;99.90;;;;;;5079740;28;20020;-69
2022/10/28 11:46:23;;;;;;;14.02;5.00;;;21.00;99.90;;;;;;5074566;28;20032;-70
2022/10/28 11:49:13;;;;;;;12.30;5.00;;;21.00;99.90;;;;;;5091922;28;20062;-70
2022/10/28 11:51:49;;;;;;;;;;;21.00;99.90;;;;;;5081425;28;20024;-72
2022/10/28 11:54:29;;;;;;;14.30;5.38;;;21.00;99.90;;;;;;5085987;28;19908;-70
2022/10/28 11:57:00;;;;;;;;;;;20.80;99.90;;;;;;5076883;28;20441;-72
2022/10/28 11:59:28;;;;;;;18.88;5.88;;;20.70;99.90;;;;;;5090185;28;19908;-72
2022/10/28 12:02:33;;;;;;;12.07;5.15;;;20.60;99.90;;;;;;5078384;28;20109;-73
2022/10/28 12:05:22;;;;;;;10.60;3.10;;;20.70;99.90;;;;;;5090976;28;20032;-73
2022/10/28 12:08:12;;;;;;;11.48;3.42;;;20.80;99.90;;;;;;5080837;28;20515;-72
2022/10/28 12:10:58;;;;;;;9.68;3.60;;;21.00;99.90;;;;;;5090939;28;20032;-75
2022/10/28 12:13:45;;;;;;;10.07;3.50;;;21.30;99.90;;;;;;5091063;28;20527;-72
2022/10/28 12:16:34;;;;;;;7.75;3.28;;;21.40;99.90;;;;;;5091852;28;20024;-73
2022/10/28 12:19:08;;;;;;;14.38;3.97;;;21.60;99.90;;;;;;5089800;28;20039;-74
2022/10/28 12:21:42;;;;;;;14.88;3.92;;;21.80;99.90;;;;;;5087936;28;20020;-74
2022/10/28 12:24:15;;;;;;;11.00;3.95;;;22.00;99.90;;;;;;5091738;28;20028;-73
2022/10/28 12:26:50;;;;;;;10.00;3.42;;;22.00;99.90;;;;;;5090878;28;20090;-75
2022/10/28 12:29:23;;;;;;;12.07;3.95;;;22.10;99.90;;;;;;5091501;28;20038;-73
2022/10/28 12:31:57;;;;;;;12.93;4.30;;;22.30;99.90;;;;;;5078682;28;20108;-73
2022/10/28 12:34:53;;;;;;;14.27;4.22;;;22.80;99.90;;;;;;5090776;28;20024;-74
2022/10/28 12:37:32;;;;;;;8.57;3.75;;;23.00;99.90;;;;;;5073586;28;20103;-74
2022/10/28 12:40:19;;;;;;;11.00;4.55;;;23.10;99.90;;;;;;5090077;28;20063;-74
2022/10/28 12:42:53;;;;;;;18.85;5.05;;;23.20;99.90;;;;;;5090191;28;20078;-74
2022/10/28 12:45:21;;;;;;;11.65;4.38;;;23.40;99.90;;;;;;5090610;28;20431;-74
2022/10/28 12:47:50;;;;;;;8.85;3.75;;;23.60;99.90;;;;;;5090346;28;20475;-74
2022/10/28 12:50:27;;;;;;;9.70;3.70;;;23.90;99.90;;;;;;5058720;28;20025;-73
2022/10/28 12:53:16;;;;;;;14.35;4.25;;;24.20;99.90;;;;;;5068148;28;20117;-74
2022/10/28 12:59:00;;;;;;;12.73;3.67;;;25.00;99.90;;;;;;5069483;28;20473;-74
2022/10/28 13:01:29;;;;;;;14.65;4.40;;;25.20;99.90;;;;;;5070529;28;20036;-74
2022/10/28 13:03:55;;;;;;;14.65;4.00;;;25.40;99.90;;;;;;5069918;28;20052;-74